createdAt,value
2023-05-11T00:00:41.987Z,4.50
2023-05-11T00:03:19.134Z,4.82
2023-05-11T00:05:53.972Z,5.00
2023-05-11T00:08:28.488Z,4.40
2023-05-11T00:11:03.805Z,4.20
2023-05-11T00:13:38.936Z,4.32
2023-05-11T00:16:14.360Z,3.88
2023-05-11T00:18:52.054Z,3.97
2023-05-11T00:21:26.402Z,3.78
2023-05-11T00:24:01.583Z,4.15
2023-05-11T00:26:36.849Z,3.85
2023-05-11T00:29:11.510Z,3.47
2023-05-11T00:31:49.668Z,4.05
2023-05-11T00:34:26.829Z,3.45
2023-05-11T00:37:12.603Z,3.60
2023-05-11T00:39:47.656Z,3.40
2023-05-11T00:42:22.264Z,3.65
2023-05-11T00:44:57.400Z,3.25
2023-05-11T00:47:33.141Z,3.95
2023-05-11T00:50:09.984Z,3.42
2023-05-11T00:52:44.477Z,3.30
2023-05-11T00:55:20.388Z,3.33
2023-05-11T00:57:55.267Z,2.78
2023-05-11T01:00:29.943Z,2.80
2023-05-11T01:03:06.160Z,2.72
2023-05-11T01:05:47.533Z,4.63
2023-05-11T01:08:23.560Z,3.58
2023-05-11T01:11:03.529Z,3.30
2023-05-11T01:13:40.950Z,3.75
2023-05-11T01:16:19.450Z,3.13
2023-05-11T01:19:00.801Z,2.35
2023-05-11T01:21:40.808Z,2.80
2023-05-11T01:24:25.690Z,2.72
2023-05-11T01:27:15.972Z,2.40
2023-05-11T01:29:55.342Z,2.03
2023-05-11T01:32:35.004Z,2.40
2023-05-11T01:35:13.332Z,2.50
2023-05-11T01:37:51.436Z,2.70
2023-05-11T01:40:27.999Z,2.30
2023-05-11T01:43:05.568Z,2.40
2023-05-11T01:45:42.023Z,2.45
2023-05-11T01:48:22.017Z,2.60
2023-05-11T01:50:57.573Z,2.22
2023-05-11T01:53:33.540Z,2.40
2023-05-11T01:56:08.705Z,2.13
2023-05-11T01:58:46.153Z,2.40
2023-05-11T02:01:21.762Z,2.60
2023-05-11T02:03:59.439Z,2.63
2023-05-11T02:06:34.345Z,2.60
2023-05-11T02:09:10.076Z,2.30
2023-05-11T02:11:45.734Z,2.60
2023-05-11T02:14:23.953Z,2.50
2023-05-11T02:16:58.944Z,2.13
2023-05-11T02:19:37.373Z,2.60
2023-05-11T02:22:12.380Z,2.00
2023-05-11T02:24:47.889Z,2.50
2023-05-11T02:27:22.654Z,2.10
2023-05-11T02:29:58.153Z,1.70
2023-05-11T02:32:33.527Z,2.50
2023-05-11T02:35:12.632Z,2.25
2023-05-11T02:37:48.601Z,2.50
2023-05-11T02:40:25.371Z,2.30
2023-05-11T02:43:03.367Z,2.45
2023-05-11T02:45:39.335Z,2.38
2023-05-11T02:48:17.848Z,2.17
2023-05-11T02:50:56.934Z,1.90
2023-05-11T02:53:35.264Z,2.70
2023-05-11T02:56:10.287Z,2.33
2023-05-11T02:58:44.829Z,2.90
2023-05-11T03:01:33.203Z,2.30
2023-05-11T03:04:09.888Z,2.67
2023-05-11T03:06:50.193Z,3.10
2023-05-11T03:09:24.744Z,2.67
2023-05-11T03:12:00.733Z,2.65
2023-05-11T03:14:38.278Z,2.60
2023-05-11T03:17:13.351Z,2.40
2023-05-11T03:19:48.287Z,2.70
2023-05-11T03:22:28.264Z,2.47
2023-05-11T03:25:03.519Z,2.65
2023-05-11T03:27:40.844Z,2.85
2023-05-11T03:30:17.082Z,2.50
2023-05-11T03:32:56.060Z,2.60
2023-05-11T03:35:34.369Z,2.45
2023-05-11T03:38:15.810Z,2.90
2023-05-11T03:40:54.678Z,4.35
2023-05-11T03:43:33.478Z,7.85
2023-05-11T03:46:11.250Z,3.10
2023-05-11T03:48:47.006Z,2.63
2023-05-11T03:51:26.777Z,2.30
2023-05-11T03:54:05.460Z,2.40
2023-05-11T03:56:41.691Z,2.17
2023-05-11T03:59:20.319Z,2.85
2023-05-11T04:01:55.693Z,2.22
2023-05-11T04:04:37.936Z,2.25
2023-05-11T04:07:16.442Z,2.20
2023-05-11T04:09:53.865Z,2.55
2023-05-11T04:12:28.543Z,2.38
2023-05-11T04:15:04.224Z,2.13
2023-05-11T04:17:38.994Z,2.22
2023-05-11T04:20:13.827Z,2.42
2023-05-11T04:22:48.634Z,2.20
2023-05-11T04:25:33.949Z,2.70
2023-05-11T04:28:11.706Z,3.08
2023-05-11T04:30:46.402Z,2.35
2023-05-11T04:33:22.038Z,2.40
2023-05-11T04:35:57.753Z,2.20
2023-05-11T04:38:33.038Z,2.25
2023-05-11T04:41:16.751Z,2.30
2023-05-11T04:43:52.385Z,2.20
2023-05-11T04:46:27.376Z,2.20
2023-05-11T04:49:03.003Z,2.13
2023-05-11T04:51:38.419Z,1.80
2023-05-11T04:54:14.252Z,2.28
2023-05-11T04:56:51.546Z,2.17
2023-05-11T04:59:26.613Z,2.10
2023-05-11T05:02:01.211Z,2.35
2023-05-11T05:04:36.579Z,2.00
2023-05-11T05:07:12.238Z,2.40
2023-05-11T05:09:47.798Z,2.40
2023-05-11T05:12:25.632Z,2.10
2023-05-11T05:15:00.739Z,2.72
2023-05-11T05:17:36.479Z,2.38
2023-05-11T05:20:13.025Z,2.00
2023-05-11T05:22:47.839Z,2.40
2023-05-11T05:25:23.145Z,2.50
2023-05-11T05:28:02.900Z,2.10
2023-05-11T05:30:38.998Z,2.13
2023-05-11T05:33:14.790Z,2.25
2023-05-11T05:35:49.452Z,2.22
2023-05-11T05:38:28.859Z,2.25
2023-05-11T05:41:04.934Z,2.40
2023-05-11T05:43:50.406Z,1.90
2023-05-11T05:46:28.700Z,2.35
2023-05-11T05:49:04.537Z,2.40
2023-05-11T05:51:39.258Z,2.30
2023-05-11T05:54:14.984Z,2.55
2023-05-11T05:56:50.012Z,2.70
2023-05-11T05:59:28.271Z,2.53
2023-05-11T06:02:05.423Z,2.30
2023-05-11T06:04:40.532Z,2.40
2023-05-11T06:07:15.868Z,2.50
2023-05-11T06:09:50.945Z,2.45
2023-05-11T06:12:29.173Z,2.40
2023-05-11T06:15:11.811Z,2.40
2023-05-11T06:17:58.660Z,2.50
2023-05-11T06:20:35.555Z,2.30
2023-05-11T06:23:13.148Z,2.58
2023-05-11T06:25:50.372Z,2.90
2023-05-11T06:28:28.616Z,2.53
2023-05-11T06:31:20.951Z,2.30
2023-05-11T06:33:56.573Z,2.33
2023-05-11T06:36:34.914Z,2.30
2023-05-11T06:39:09.445Z,1.80
2023-05-11T06:41:44.588Z,2.00
2023-05-11T06:44:19.501Z,2.35
2023-05-11T06:46:59.660Z,2.03
2023-05-11T06:49:34.037Z,1.98
2023-05-11T06:52:09.432Z,2.10
2023-05-11T06:54:44.320Z,2.15
2023-05-11T06:57:19.022Z,2.08
2023-05-11T06:59:53.388Z,2.05
2023-05-11T07:02:31.166Z,1.92
2023-05-11T07:05:05.915Z,1.90
2023-05-11T07:07:40.655Z,1.85
2023-05-11T07:10:15.580Z,2.15
2023-05-11T07:12:50.733Z,2.28
2023-05-11T07:15:26.113Z,2.20
2023-05-11T07:18:21.522Z,2.30
2023-05-11T07:20:59.293Z,2.17
2023-05-11T07:23:41.212Z,2.30
2023-05-11T07:26:20.377Z,2.20
2023-05-11T07:28:58.331Z,2.25
2023-05-11T07:31:37.394Z,2.38
2023-05-11T07:34:20.078Z,2.17
2023-05-11T07:37:02.277Z,2.38
2023-05-11T07:39:45.468Z,2.40
2023-05-11T07:42:21.889Z,2.50
2023-05-11T07:45:01.212Z,2.20
2023-05-11T07:47:59.784Z,2.35
2023-05-11T07:50:45.689Z,2.10
2023-05-11T07:53:30.744Z,2.10
2023-05-11T07:56:08.249Z,2.08
2023-05-11T07:58:44.154Z,2.10
2023-05-11T08:01:20.951Z,2.20
2023-05-11T08:03:55.682Z,2.40
2023-05-11T08:06:33.254Z,2.00
2023-05-11T08:09:09.565Z,2.38
2023-05-11T08:11:47.741Z,2.28
2023-05-11T08:14:22.830Z,2.05
2023-05-11T08:16:58.627Z,2.22
2023-05-11T08:19:38.398Z,2.80
2023-05-11T08:22:26.258Z,3.13
2023-05-11T08:25:03.610Z,2.90
2023-05-11T08:27:42.032Z,2.10
2023-05-11T08:30:17.295Z,2.22
2023-05-11T08:32:58.363Z,2.50
2023-05-11T08:35:37.419Z,2.08
2023-05-11T08:38:15.479Z,2.10
2023-05-11T08:40:53.423Z,1.70
2023-05-11T08:43:31.585Z,1.60
2023-05-11T08:46:09.646Z,2.25
2023-05-11T08:48:47.074Z,1.80
2023-05-11T08:51:21.814Z,2.00
2023-05-11T08:54:05.500Z,1.80
2023-05-11T08:56:41.925Z,2.00
2023-05-11T08:59:18.293Z,2.00
2023-05-11T09:01:54.795Z,1.70
2023-05-11T09:04:33.318Z,1.88
2023-05-11T09:07:07.839Z,2.00
2023-05-11T09:09:46.659Z,1.88
2023-05-11T09:12:22.594Z,2.08
2023-05-11T09:15:01.979Z,1.90
2023-05-11T09:17:37.281Z,2.05
2023-05-11T09:20:14.010Z,2.10
2023-05-11T09:22:50.393Z,2.15
2023-05-11T09:25:27.820Z,1.80
2023-05-11T09:28:02.994Z,2.28
2023-05-11T09:30:39.815Z,2.00
2023-05-11T09:33:14.817Z,2.20
2023-05-11T09:35:50.173Z,2.38
2023-05-11T09:38:24.855Z,2.25
2023-05-11T09:41:04.865Z,1.90
2023-05-11T09:43:40.049Z,1.75
2023-05-11T09:46:26.107Z,1.70
2023-05-11T09:49:04.861Z,1.65
2023-05-11T09:51:42.320Z,2.20
2023-05-11T09:54:28.102Z,2.25
2023-05-11T09:57:08.237Z,1.88
2023-05-11T09:59:43.923Z,2.25
2023-05-11T10:02:25.770Z,2.20
2023-05-11T10:05:02.960Z,2.20
2023-05-11T10:07:40.207Z,2.45
2023-05-11T10:10:16.911Z,2.20
2023-05-11T10:12:55.884Z,2.67
2023-05-11T10:15:33.229Z,2.70
2023-05-11T10:18:09.091Z,2.78
2023-05-11T10:20:49.299Z,2.80
2023-05-11T10:23:29.447Z,3.10
2023-05-11T10:26:05.384Z,2.95
2023-05-11T10:28:42.602Z,3.85
2023-05-11T10:31:20.303Z,4.30
2023-05-11T10:33:56.739Z,3.67
2023-05-11T10:36:36.106Z,3.22
2023-05-11T10:39:12.109Z,3.05
2023-05-11T10:41:53.799Z,3.00
2023-05-11T10:44:46.741Z,2.90
2023-05-11T10:47:31.684Z,2.97
2023-05-11T10:50:22.583Z,2.80
2023-05-11T10:53:14.895Z,3.28
2023-05-11T10:56:00.873Z,2.67
2023-05-11T10:58:43.172Z,2.92
2023-05-11T11:01:39.258Z,2.60
2023-05-11T11:04:23.829Z,2.78
2023-05-11T11:07:10.498Z,2.70
2023-05-11T11:10:03.114Z,3.00
2023-05-11T11:12:38.605Z,2.78
2023-05-11T11:15:13.608Z,2.47
2023-05-11T11:17:50.600Z,2.95
2023-05-11T11:20:39.010Z,2.83
2023-05-11T11:23:34.752Z,2.90
2023-05-11T11:26:10.186Z,2.97
2023-05-11T11:29:02.406Z,3.13
2023-05-11T11:31:48.433Z,3.00
2023-05-11T11:34:41.185Z,3.20
2023-05-11T11:37:26.194Z,3.25
2023-05-11T11:40:16.693Z,2.80
2023-05-11T11:43:02.062Z,3.10
2023-05-11T11:45:43.475Z,2.92
2023-05-11T11:48:21.142Z,2.53
2023-05-11T11:51:08.286Z,2.33
2023-05-11T11:54:11.688Z,2.70
2023-05-11T11:56:49.779Z,2.75
2023-05-11T11:59:24.303Z,2.80
2023-05-11T12:01:59.919Z,2.85
2023-05-11T12:04:58.153Z,2.30
2023-05-11T12:07:39.704Z,2.30
2023-05-11T12:10:19.365Z,2.35
2023-05-11T12:12:57.966Z,2.20
2023-05-11T12:15:34.970Z,2.60
2023-05-11T12:18:10.260Z,2.38
2023-05-11T12:20:45.107Z,2.30
2023-05-11T12:23:21.934Z,1.98
2023-05-11T12:26:06.232Z,2.22
2023-05-11T12:28:41.801Z,1.77
2023-05-11T12:31:16.632Z,2.38
2023-05-11T12:33:51.696Z,2.40
2023-05-11T12:36:26.034Z,2.92
2023-05-11T12:39:03.235Z,2.45
2023-05-11T12:41:37.943Z,2.10
2023-05-11T12:44:13.420Z,2.60
2023-05-11T12:46:48.099Z,2.30
2023-05-11T12:49:25.885Z,2.30
2023-05-11T12:52:10.581Z,2.20
2023-05-11T12:54:53.883Z,2.20
2023-05-11T12:57:28.702Z,1.80
2023-05-11T13:00:16.351Z,2.13
2023-05-11T13:02:52.534Z,2.13
2023-05-11T13:05:29.074Z,2.33
2023-05-11T13:08:03.831Z,2.00
2023-05-11T13:10:40.720Z,2.15
2023-05-11T13:13:15.156Z,2.05
2023-05-11T13:15:56.586Z,1.95
2023-05-11T13:18:30.991Z,1.83
2023-05-11T13:21:13.084Z,1.75
2023-05-11T13:23:56.077Z,1.83
2023-05-11T13:26:34.829Z,1.90
2023-05-11T13:29:11.556Z,2.00
2023-05-11T13:31:51.045Z,1.92
2023-05-11T13:34:25.696Z,1.90
2023-05-11T13:37:04.168Z,2.00
2023-05-11T13:39:39.100Z,1.88
2023-05-11T13:42:16.031Z,2.25
2023-05-11T13:44:50.504Z,2.47
2023-05-11T13:47:26.205Z,2.28
2023-05-11T13:50:00.684Z,2.42
2023-05-11T13:52:36.298Z,2.95
2023-05-11T13:55:11.118Z,2.95
2023-05-11T13:57:48.047Z,2.97
2023-05-11T14:00:23.324Z,2.80
2023-05-11T14:03:00.371Z,2.92
2023-05-11T14:05:36.315Z,3.35
2023-05-11T14:08:12.318Z,3.30
2023-05-11T14:10:46.991Z,3.40
2023-05-11T14:13:23.974Z,3.10
2023-05-11T14:15:58.421Z,3.10
2023-05-11T14:18:34.136Z,3.08
2023-05-11T14:21:08.674Z,3.53
2023-05-11T14:23:57.774Z,3.47
2023-05-11T14:26:39.403Z,3.75
2023-05-11T14:29:16.244Z,3.67
2023-05-11T14:31:51.149Z,3.85
2023-05-11T14:34:26.987Z,3.60
2023-05-11T14:37:02.977Z,3.65
2023-05-11T14:39:37.802Z,3.65
2023-05-11T14:42:12.411Z,3.28
2023-05-11T14:44:50.042Z,3.78
2023-05-11T14:47:24.485Z,3.78
2023-05-11T14:50:00.273Z,3.80
2023-05-11T14:52:34.857Z,3.55
2023-05-11T14:55:10.660Z,4.00
2023-05-11T14:57:45.256Z,3.78
2023-05-11T15:00:22.688Z,3.80
2023-05-11T15:02:57.931Z,3.40
2023-05-11T15:05:33.833Z,3.80
2023-05-11T15:08:18.381Z,3.60
2023-05-11T15:11:01.362Z,3.67
2023-05-11T15:13:35.962Z,3.42
2023-05-11T15:16:13.253Z,3.20
2023-05-11T15:18:47.808Z,3.47
2023-05-11T15:21:26.383Z,3.40
2023-05-11T15:24:00.826Z,3.40
2023-05-11T15:26:36.110Z,3.20
2023-05-11T15:29:10.505Z,3.45
2023-05-11T15:31:48.035Z,3.50
2023-05-11T15:34:23.351Z,3.70
2023-05-11T15:37:00.398Z,3.53
2023-05-11T15:39:35.882Z,3.10
2023-05-11T15:42:12.020Z,3.10
2023-05-11T15:44:47.148Z,3.13
2023-05-11T15:47:24.640Z,3.05
2023-05-11T15:49:59.331Z,2.60
2023-05-11T15:52:35.831Z,3.00
2023-05-11T15:55:11.129Z,3.00
2023-05-11T15:57:46.843Z,2.97
2023-05-11T16:00:22.223Z,3.30
2023-05-11T16:02:59.885Z,3.45
2023-05-11T16:05:35.172Z,3.10
2023-05-11T16:08:11.614Z,3.00
2023-05-11T16:10:46.701Z,2.90
2023-05-11T16:13:22.130Z,2.80
2023-05-11T16:15:57.744Z,3.17
2023-05-11T16:18:35.605Z,3.08
2023-05-11T16:21:11.046Z,2.70
2023-05-11T16:23:46.631Z,2.72
2023-05-11T16:26:21.709Z,2.83
2023-05-11T16:28:57.203Z,3.40
2023-05-11T16:31:33.077Z,3.10
2023-05-11T16:34:10.279Z,3.10
2023-05-11T16:36:45.443Z,2.80
2023-05-11T16:39:22.491Z,3.10
2023-05-11T16:41:57.528Z,2.70
2023-05-11T16:44:33.537Z,3.28
2023-05-11T16:47:08.525Z,2.67
2023-05-11T16:49:48.008Z,3.10
2023-05-11T16:52:23.917Z,3.08
2023-05-11T16:55:00.261Z,3.10
2023-05-11T16:57:35.867Z,3.20
2023-05-11T17:00:12.205Z,3.28
2023-05-11T17:02:48.284Z,3.30
2023-05-11T17:05:26.020Z,3.35
2023-05-11T17:08:01.417Z,3.17
2023-05-11T17:10:39.406Z,3.38
2023-05-11T17:13:14.236Z,3.00
2023-05-11T17:15:49.677Z,3.00
2023-05-11T17:18:25.078Z,2.95
2023-05-11T17:21:04.238Z,3.10
2023-05-11T17:23:39.895Z,2.67
2023-05-11T17:26:17.041Z,3.30
2023-05-11T17:28:52.933Z,3.38
2023-05-11T17:31:28.739Z,2.83
2023-05-11T17:34:04.100Z,3.20
2023-05-11T17:36:41.924Z,3.15
2023-05-11T17:39:21.078Z,3.13
2023-05-11T17:41:58.090Z,3.53
2023-05-11T17:44:32.942Z,3.60
2023-05-11T17:47:08.504Z,3.53
2023-05-11T17:49:44.737Z,3.47
2023-05-11T17:52:22.609Z,3.80
2023-05-11T17:54:58.219Z,3.40
2023-05-11T17:57:33.923Z,3.10
2023-05-11T18:00:11.918Z,3.60
2023-05-11T18:02:48.662Z,2.97
2023-05-11T18:05:33.318Z,3.10
2023-05-11T18:08:17.981Z,3.15
2023-05-11T18:10:53.728Z,3.28
2023-05-11T18:13:35.393Z,3.47
2023-05-11T18:16:11.275Z,3.90
2023-05-11T18:18:46.666Z,3.45
2023-05-11T18:21:22.101Z,3.10
2023-05-11T18:24:00.181Z,3.60
2023-05-11T18:26:36.092Z,3.83
2023-05-11T18:29:19.407Z,3.15
2023-05-11T18:31:55.670Z,3.38
2023-05-11T18:34:31.957Z,3.22
2023-05-11T18:37:07.374Z,3.22
2023-05-11T18:39:44.415Z,3.20
2023-05-11T18:42:19.806Z,3.42
2023-05-11T18:44:58.496Z,3.28
2023-05-11T18:47:33.709Z,3.45
2023-05-11T18:50:10.220Z,3.45
2023-05-11T18:52:45.147Z,3.47
2023-05-11T18:55:22.558Z,3.70
2023-05-11T18:57:59.903Z,3.60
2023-05-11T19:00:39.247Z,4.13
2023-05-11T19:03:16.175Z,3.88
2023-05-11T19:05:52.271Z,4.03
2023-05-11T19:08:28.074Z,3.78
2023-05-11T19:11:09.412Z,3.97
2023-05-11T19:13:45.135Z,4.68
2023-05-11T19:16:22.779Z,4.28
2023-05-11T19:18:58.783Z,4.60
2023-05-11T19:21:34.007Z,4.50
2023-05-11T19:24:09.017Z,4.40
2023-05-11T19:26:55.403Z,4.75
2023-05-11T19:29:40.802Z,4.55
2023-05-11T19:32:16.322Z,4.55
2023-05-11T19:34:51.678Z,4.50
2023-05-11T19:37:27.636Z,4.68
2023-05-11T19:40:43.188Z,4.70
2023-05-11T19:43:01.148Z,4.53
2023-05-11T19:45:36.461Z,4.85
2023-05-11T19:48:12.722Z,4.93
2023-05-11T19:50:49.361Z,4.80
2023-05-11T19:53:24.153Z,5.22
2023-05-11T19:55:59.033Z,5.05
2023-05-11T19:58:40.177Z,4.40
2023-05-11T20:01:16.155Z,4.82
2023-05-11T20:03:52.482Z,4.60
2023-05-11T20:06:30.311Z,4.40
2023-05-11T20:09:07.010Z,4.95
2023-05-11T20:11:43.316Z,4.72
2023-05-11T20:14:21.151Z,4.80
2023-05-11T20:16:56.102Z,5.00
2023-05-11T20:19:32.497Z,4.93
2023-05-11T20:22:08.605Z,5.28
2023-05-11T20:24:43.993Z,4.90
2023-05-11T20:27:19.224Z,4.78
2023-05-11T20:29:56.754Z,4.80
2023-05-11T20:32:34.108Z,5.05
2023-05-11T20:35:10.866Z,5.03
2023-05-11T20:37:46.034Z,4.53
2023-05-11T20:40:22.959Z,4.90
2023-05-11T20:42:59.038Z,4.97
2023-05-11T20:45:36.026Z,5.30
2023-05-11T20:48:10.889Z,4.93
2023-05-11T20:50:54.877Z,4.75
2023-05-11T20:53:30.360Z,4.68
2023-05-11T20:56:06.190Z,4.72
2023-05-11T20:58:41.383Z,4.70
2023-05-11T21:01:19.241Z,4.47
2023-05-11T21:03:54.112Z,5.07
2023-05-11T21:06:29.663Z,4.60
2023-05-11T21:09:05.541Z,4.90
2023-05-11T21:11:41.442Z,4.50
2023-05-11T21:14:16.463Z,5.22
2023-05-11T21:16:53.358Z,5.50
2023-05-11T21:19:27.890Z,5.40
2023-05-11T21:22:04.313Z,4.88
2023-05-11T21:24:41.290Z,5.00
2023-05-11T21:27:16.721Z,4.75
2023-05-11T21:29:52.614Z,5.43
2023-05-11T21:32:29.953Z,5.28
2023-05-11T21:35:05.353Z,4.85
2023-05-11T21:37:41.195Z,5.13
2023-05-11T21:40:16.570Z,4.93
2023-05-11T21:42:53.111Z,5.03
2023-05-11T21:45:28.360Z,4.60
2023-05-11T21:48:06.422Z,4.72
2023-05-11T21:50:41.004Z,5.00
2023-05-11T21:53:17.051Z,4.85
2023-05-11T21:55:51.862Z,4.95
2023-05-11T21:58:26.536Z,5.40
2023-05-11T22:01:01.076Z,5.30
2023-05-11T22:03:38.949Z,5.20
2023-05-11T22:06:14.287Z,5.25
2023-05-11T22:08:49.712Z,5.20
2023-05-11T22:11:24.468Z,4.80
2023-05-11T22:13:59.754Z,4.95
2023-05-11T22:16:34.813Z,5.30
2023-05-11T22:19:11.739Z,5.18
2023-05-11T22:21:46.517Z,4.65
2023-05-11T22:24:23.793Z,5.00
2023-05-11T22:26:59.026Z,5.38
2023-05-11T22:29:33.862Z,4.95
2023-05-11T22:32:08.689Z,4.80
2023-05-11T22:34:45.710Z,5.40
2023-05-11T22:37:22.209Z,5.60
2023-05-11T22:39:58.288Z,5.30
2023-05-11T22:42:34.484Z,5.45
2023-05-11T22:45:09.939Z,5.50
2023-05-11T22:47:45.191Z,5.82
2023-05-11T22:50:22.271Z,5.43
2023-05-11T22:52:57.206Z,5.70
2023-05-11T22:55:33.417Z,5.30
2023-05-11T22:58:08.407Z,5.68
2023-05-11T23:00:43.215Z,6.18
2023-05-11T23:03:18.215Z,5.80
2023-05-11T23:05:55.920Z,5.50
2023-05-11T23:08:30.829Z,5.18
2023-05-11T23:11:09.149Z,5.03
2023-05-11T23:13:43.803Z,5.70
2023-05-11T23:16:19.407Z,5.80
2023-05-11T23:18:54.263Z,5.47
2023-05-11T23:21:31.146Z,5.50
2023-05-11T23:24:07.658Z,5.53
2023-05-11T23:26:44.502Z,5.50
2023-05-11T23:29:19.643Z,5.40
2023-05-11T23:31:54.731Z,4.80
2023-05-11T23:34:29.375Z,4.70
2023-05-11T23:37:06.478Z,4.68
2023-05-11T23:39:41.245Z,3.88
2023-05-11T23:42:16.544Z,4.20
2023-05-11T23:44:51.112Z,4.60
2023-05-11T23:47:29.228Z,4.50
2023-05-11T23:50:07.801Z,4.68
2023-05-11T23:52:45.180Z,4.70
2023-05-11T23:55:26.429Z,4.60
2023-05-11T23:58:02.542Z,3.95
